sensor_id;sensor_type;location;lat;lon;timestamp;P1;durP1;ratioP1;P2;durP2;ratioP2
616;SDS011;295;51.628;7.520;2022-12-01T00:02:20;9.20;;;8.30;;
616;SDS011;295;51.628;7.520;2022-12-01T00:05:09;11.50;;;8.77;;
616;SDS011;295;51.628;7.520;2022-12-01T00:08:20;9.80;;;8.90;;
616;SDS011;295;51.628;7.520;2022-12-01T00:11:10;9.40;;;8.40;;
616;SDS011;295;51.628;7.520;2022-12-01T00:13:59;9.43;;;8.60;;
616;SDS011;295;51.628;7.520;2022-12-01T00:16:48;9.80;;;8.90;;
616;SDS011;295;51.628;7.520;2022-12-01T00:19:38;8.80;;;8.00;;
616;SDS011;295;51.628;7.520;2022-12-01T00:22:30;9.07;;;8.33;;
616;SDS011;295;51.628;7.520;2022-12-01T00:25:21;9.37;;;8.57;;
616;SDS011;295;51.628;7.520;2022-12-01T00:28:10;9.77;;;8.93;;
616;SDS011;295;51.628;7.520;2022-12-01T00:31:03;9.47;;;8.67;;
616;SDS011;295;51.628;7.520;2022-12-01T00:33:54;8.80;;;8.10;;
616;SDS011;295;51.628;7.520;2022-12-01T00:36:43;9.93;;;8.93;;
616;SDS011;295;51.628;7.520;2022-12-01T00:39:34;9.10;;;8.40;;
616;SDS011;295;51.628;7.520;2022-12-01T00:42:23;8.90;;;8.10;;
616;SDS011;295;51.628;7.520;2022-12-01T00:45:26;9.60;;;8.60;;
616;SDS011;295;51.628;7.520;2022-12-01T00:48:24;10.17;;;9.23;;
616;SDS011;295;51.628;7.520;2022-12-01T00:51:19;10.23;;;8.23;;
616;SDS011;295;51.628;7.520;2022-12-01T00:54:08;9.13;;;8.33;;
616;SDS011;295;51.628;7.520;2022-12-01T00:56:59;9.27;;;8.47;;
616;SDS011;295;51.628;7.520;2022-12-01T00:59:54;9.80;;;8.90;;
616;SDS011;295;51.628;7.520;2022-12-01T01:02:58;10.00;;;9.20;;
616;SDS011;295;51.628;7.520;2022-12-01T01:05:48;10.87;;;9.27;;
616;SDS011;295;51.628;7.520;2022-12-01T01:08:37;9.43;;;8.53;;
616;SDS011;295;51.628;7.520;2022-12-01T01:11:31;9.03;;;8.23;;
616;SDS011;295;51.628;7.520;2022-12-01T01:14:21;9.20;;;8.33;;
616;SDS011;295;51.628;7.520;2022-12-01T01:17:10;10.53;;;9.53;;
616;SDS011;295;51.628;7.520;2022-12-01T01:20:00;9.80;;;8.90;;
616;SDS011;295;51.628;7.520;2022-12-01T01:22:56;9.33;;;8.53;;
616;SDS011;295;51.628;7.520;2022-12-01T01:25:48;10.10;;;9.10;;
616;SDS011;295;51.628;7.520;2022-12-01T01:28:37;9.73;;;8.83;;
616;SDS011;295;51.628;7.520;2022-12-01T01:31:28;9.50;;;8.70;;
616;SDS011;295;51.628;7.520;2022-12-01T01:34:18;9.50;;;8.70;;
616;SDS011;295;51.628;7.520;2022-12-01T01:37:07;8.43;;;7.73;;
616;SDS011;295;51.628;7.520;2022-12-01T01:39:57;10.10;;;9.20;;
616;SDS011;295;51.628;7.520;2022-12-01T01:42:46;9.50;;;8.50;;
616;SDS011;295;51.628;7.520;2022-12-01T01:45:34;9.07;;;8.27;;
616;SDS011;295;51.628;7.520;2022-12-01T01:48:23;9.13;;;8.33;;
616;SDS011;295;51.628;7.520;2022-12-01T01:51:12;9.10;;;8.20;;
616;SDS011;295;51.628;7.520;2022-12-01T01:54:03;9.10;;;8.37;;
616;SDS011;295;51.628;7.520;2022-12-01T01:56:54;10.03;;;9.10;;
616;SDS011;295;51.628;7.520;2022-12-01T01:59:46;8.90;;;8.17;;
616;SDS011;295;51.628;7.520;2022-12-01T02:02:36;9.10;;;8.30;;
616;SDS011;295;51.628;7.520;2022-12-01T02:05:29;9.50;;;8.70;;
616;SDS011;295;51.628;7.520;2022-12-01T02:08:19;9.10;;;8.30;;
616;SDS011;295;51.628;7.520;2022-12-01T02:11:19;9.27;;;8.53;;
616;SDS011;295;51.628;7.520;2022-12-01T02:14:15;8.80;;;8.10;;
616;SDS011;295;51.628;7.520;2022-12-01T02:17:09;9.37;;;8.57;;
616;SDS011;295;51.628;7.520;2022-12-01T02:20:22;8.77;;;7.97;;
616;SDS011;295;51.628;7.520;2022-12-01T02:26:37;10.27;;;9.10;;
616;SDS011;295;51.628;7.520;2022-12-01T02:29:37;9.17;;;8.37;;
616;SDS011;295;51.628;7.520;2022-12-01T02:32:32;9.30;;;8.50;;
616;SDS011;295;51.628;7.520;2022-12-01T02:35:27;8.53;;;7.63;;
616;SDS011;295;51.628;7.520;2022-12-01T02:38:20;9.70;;;8.50;;
616;SDS011;295;51.628;7.520;2022-12-01T02:41:13;9.63;;;8.83;;
616;SDS011;295;51.628;7.520;2022-12-01T02:44:07;9.47;;;8.57;;
616;SDS011;295;51.628;7.520;2022-12-01T02:46:57;9.70;;;8.80;;
616;SDS011;295;51.628;7.520;2022-12-01T02:49:49;9.30;;;8.50;;
616;SDS011;295;51.628;7.520;2022-12-01T02:52:41;9.23;;;8.33;;
616;SDS011;295;51.628;7.520;2022-12-01T02:55:30;9.20;;;8.40;;
616;SDS011;295;51.628;7.520;2022-12-01T02:58:19;8.90;;;8.00;;
616;SDS011;295;51.628;7.520;2022-12-01T03:01:13;9.10;;;8.30;;
616;SDS011;295;51.628;7.520;2022-12-01T03:04:09;9.47;;;8.67;;
616;SDS011;295;51.628;7.520;2022-12-01T04:45:45;10.10;;;9.20;;
616;SDS011;295;51.628;7.520;2022-12-01T04:48:35;10.97;;;9.97;;
616;SDS011;295;51.628;7.520;2022-12-01T04:51:24;9.93;;;9.03;;
616;SDS011;295;51.628;7.520;2022-12-01T04:54:18;9.83;;;8.93;;
616;SDS011;295;51.628;7.520;2022-12-01T04:57:29;9.33;;;8.53;;
616;SDS011;295;51.628;7.520;2022-12-01T05:01:01;9.50;;;8.70;;
616;SDS011;295;51.628;7.520;2022-12-01T05:03:50;10.20;;;9.20;;
616;SDS011;295;51.628;7.520;2022-12-01T05:06:39;9.03;;;8.33;;
616;SDS011;295;51.628;7.520;2022-12-01T05:09:50;8.80;;;8.00;;
616;SDS011;295;51.628;7.520;2022-12-01T05:12:48;10.17;;;9.20;;
616;SDS011;295;51.628;7.520;2022-12-01T05:15:49;8.90;;;8.00;;
616;SDS011;295;51.628;7.520;2022-12-01T05:18:47;9.50;;;8.67;;
616;SDS011;295;51.628;7.520;2022-12-01T05:21:47;9.50;;;8.60;;
616;SDS011;295;51.628;7.520;2022-12-01T05:24:37;9.57;;;8.77;;
616;SDS011;295;51.628;7.520;2022-12-01T05:28:01;9.17;;;8.27;;
616;SDS011;295;51.628;7.520;2022-12-01T05:31:04;8.57;;;7.80;;
616;SDS011;295;51.628;7.520;2022-12-01T05:34:05;9.57;;;8.67;;
616;SDS011;295;51.628;7.520;2022-12-01T05:37:09;9.40;;;8.60;;
616;SDS011;295;51.628;7.520;2022-12-01T05:40:04;9.50;;;8.60;;
616;SDS011;295;51.628;7.520;2022-12-01T05:43:08;9.27;;;8.40;;
616;SDS011;295;51.628;7.520;2022-12-01T05:46:17;10.00;;;9.10;;
616;SDS011;295;51.628;7.520;2022-12-01T05:49:17;9.30;;;8.50;;
616;SDS011;295;51.628;7.520;2022-12-01T05:52:19;9.70;;;8.90;;
616;SDS011;295;51.628;7.520;2022-12-01T05:55:18;10.10;;;9.20;;
616;SDS011;295;51.628;7.520;2022-12-01T05:58:16;9.70;;;8.80;;
616;SDS011;295;51.628;7.520;2022-12-01T06:04:15;10.37;;;9.47;;
616;SDS011;295;51.628;7.520;2022-12-01T06:07:14;9.77;;;8.87;;
616;SDS011;295;51.628;7.520;2022-12-01T06:10:04;8.60;;;7.90;;
616;SDS011;295;51.628;7.520;2022-12-01T06:12:55;9.53;;;8.70;;
616;SDS011;295;51.628;7.520;2022-12-01T06:19:26;10.10;;;9.23;;
616;SDS011;295;51.628;7.520;2022-12-01T06:22:19;9.93;;;9.03;;
616;SDS011;295;51.628;7.520;2022-12-01T06:25:08;9.00;;;8.20;;
616;SDS011;295;51.628;7.520;2022-12-01T06:28:01;9.87;;;9.00;;
616;SDS011;295;51.628;7.520;2022-12-01T06:30:54;10.90;;;9.90;;
616;SDS011;295;51.628;7.520;2022-12-01T06:33:49;10.30;;;9.40;;
616;SDS011;295;51.628;7.520;2022-12-01T06:36:38;9.47;;;8.60;;
616;SDS011;295;51.628;7.520;2022-12-01T06:39:43;10.00;;;9.10;;
616;SDS011;295;51.628;7.520;2022-12-01T06:44:57;10.00;;;9.10;;
616;SDS011;295;51.628;7.520;2022-12-01T06:49:52;8.87;;;8.07;;
616;SDS011;295;51.628;7.520;2022-12-01T07:02:03;9.63;;;8.73;;
616;SDS011;295;51.628;7.520;2022-12-01T07:05:28;9.80;;;9.00;;
616;SDS011;295;51.628;7.520;2022-12-01T07:35:59;9.80;;;8.90;;
616;SDS011;295;51.628;7.520;2022-12-01T08:17:31;9.10;;;8.30;;
616;SDS011;295;51.628;7.520;2022-12-01T08:20:59;9.43;;;8.53;;
616;SDS011;295;51.628;7.520;2022-12-01T08:24:18;9.13;;;8.33;;
616;SDS011;295;51.628;7.520;2022-12-01T08:28:00;9.37;;;8.47;;
616;SDS011;295;51.628;7.520;2022-12-01T08:30:55;8.90;;;8.10;;
616;SDS011;295;51.628;7.520;2022-12-01T08:33:58;9.37;;;8.57;;
616;SDS011;295;51.628;7.520;2022-12-01T08:36:48;9.13;;;8.33;;
616;SDS011;295;51.628;7.520;2022-12-01T08:39:49;9.80;;;8.90;;
616;SDS011;295;51.628;7.520;2022-12-01T08:42:59;10.00;;;9.10;;
616;SDS011;295;51.628;7.520;2022-12-01T08:46:35;8.70;;;8.00;;
616;SDS011;295;51.628;7.520;2022-12-01T08:49:47;9.57;;;8.70;;
616;SDS011;295;51.628;7.520;2022-12-01T08:59:59;8.70;;;8.00;;
616;SDS011;295;51.628;7.520;2022-12-01T09:02:46;9.00;;;8.20;;
616;SDS011;295;51.628;7.520;2022-12-01T09:16:45;18.23;;;13.90;;
616;SDS011;295;51.628;7.520;2022-12-01T09:32:56;22.47;;;20.17;;
616;SDS011;295;51.628;7.520;2022-12-01T09:35:47;18.33;;;16.47;;
616;SDS011;295;51.628;7.520;2022-12-01T09:38:36;17.20;;;15.50;;
616;SDS011;295;51.628;7.520;2022-12-01T09:41:36;19.33;;;16.60;;
616;SDS011;295;51.628;7.520;2022-12-01T09:44:47;19.40;;;17.50;;
616;SDS011;295;51.628;7.520;2022-12-01T09:53:58;17.27;;;15.60;;
616;SDS011;295;51.628;7.520;2022-12-01T09:56:49;20.10;;;16.43;;
616;SDS011;295;51.628;7.520;2022-12-01T09:59:39;17.70;;;16.00;;
616;SDS011;295;51.628;7.520;2022-12-01T10:04:15;18.57;;;16.87;;
616;SDS011;295;51.628;7.520;2022-12-01T10:06:24;18.48;;;16.02;;
616;SDS011;295;51.628;7.520;2022-12-01T10:09:19;17.13;;;15.52;;
616;SDS011;295;51.628;7.520;2022-12-01T10:12:14;16.50;;;14.95;;
616;SDS011;295;51.628;7.520;2022-12-01T10:15:21;15.77;;;14.27;;
616;SDS011;295;51.628;7.520;2022-12-01T10:18:16;16.00;;;14.60;;
616;SDS011;295;51.628;7.520;2022-12-01T10:21:08;15.77;;;14.07;;
616;SDS011;295;51.628;7.520;2022-12-01T10:24:02;17.60;;;13.80;;
616;SDS011;295;51.628;7.520;2022-12-01T10:26:56;15.43;;;13.97;;
616;SDS011;295;51.628;7.520;2022-12-01T10:29:47;15.80;;;14.20;;
616;SDS011;295;51.628;7.520;2022-12-01T10:32:40;14.20;;;12.90;;
616;SDS011;295;51.628;7.520;2022-12-01T10:35:33;15.15;;;13.55;;
616;SDS011;295;51.628;7.520;2022-12-01T10:38:24;14.98;;;13.48;;
616;SDS011;295;51.628;7.520;2022-12-01T10:41:13;14.80;;;13.40;;
616;SDS011;295;51.628;7.520;2022-12-01T10:44:04;14.57;;;13.23;;
616;SDS011;295;51.628;7.520;2022-12-01T10:46:55;13.93;;;12.63;;
616;SDS011;295;51.628;7.520;2022-12-01T10:49:43;13.33;;;12.13;;
616;SDS011;295;51.628;7.520;2022-12-01T10:52:34;14.70;;;13.25;;
616;SDS011;295;51.628;7.520;2022-12-01T10:55:24;15.13;;;13.63;;
616;SDS011;295;51.628;7.520;2022-12-01T10:58:14;16.87;;;15.10;;
616;SDS011;295;51.628;7.520;2022-12-01T11:01:05;17.05;;;15.40;;
616;SDS011;295;51.628;7.520;2022-12-01T11:03:56;17.73;;;16.00;;
616;SDS011;295;51.628;7.520;2022-12-01T11:06:47;17.50;;;15.90;;
